createdAt,value
2023-03-25T00:01:55.362Z,79.70
2023-03-25T00:04:27.276Z,80.10
2023-03-25T00:06:57.457Z,80.20
2023-03-25T00:09:25.284Z,80.40
2023-03-25T00:11:54.129Z,80.60
2023-03-25T00:14:21.935Z,80.90
2023-03-25T00:16:53.253Z,80.60
2023-03-25T00:19:22.146Z,82.20
2023-03-25T00:21:52.108Z,84.20
2023-03-25T00:24:21.381Z,88.90
2023-03-25T00:26:49.195Z,93.10
2023-03-25T00:29:17.845Z,93.40
2023-03-25T00:31:45.688Z,92.10
2023-03-25T00:34:14.477Z,92.40
2023-03-25T00:36:43.783Z,93.80
2023-03-25T00:39:12.144Z,93.70
2023-03-25T00:41:42.061Z,92.70
2023-03-25T00:44:12.421Z,92.60
2023-03-25T00:46:40.329Z,92.20
2023-03-25T00:49:08.209Z,92.20
2023-03-25T00:51:36.022Z,92.60
2023-03-25T00:54:22.267Z,92.90
2023-03-25T00:56:53.519Z,92.80
2023-03-25T00:59:21.934Z,93.50
2023-03-25T01:01:53.144Z,94.30
2023-03-25T01:04:21.052Z,95.20
2023-03-25T01:06:51.762Z,95.30
2023-03-25T01:09:21.334Z,95.50
2023-03-25T01:11:50.962Z,95.20
2023-03-25T01:14:24.127Z,95.30
2023-03-25T01:16:52.166Z,95.80
2023-03-25T01:19:20.010Z,96.10
2023-03-25T01:21:47.826Z,96.50
2023-03-25T01:24:16.322Z,96.60
2023-03-25T01:26:45.698Z,96.80
2023-03-25T01:29:16.986Z,96.50
2023-03-25T01:31:45.528Z,96.50
2023-03-25T01:34:14.200Z,96.40
2023-03-25T01:36:46.487Z,96.00
2023-03-25T01:39:16.634Z,96.10
2023-03-25T01:41:50.118Z,96.40
2023-03-25T01:44:57.300Z,96.30
2023-03-25T01:47:27.671Z,94.10
2023-03-25T01:49:55.610Z,92.40
2023-03-25T01:52:27.625Z,94.10
2023-03-25T01:54:58.942Z,93.20
2023-03-25T01:57:27.440Z,92.70
2023-03-25T01:59:56.314Z,94.40
2023-03-25T02:02:36.627Z,93.90
2023-03-25T02:05:10.768Z,95.30
2023-03-25T02:07:42.660Z,97.00
2023-03-25T02:10:13.006Z,96.80
2023-03-25T02:12:41.576Z,96.00
2023-03-25T02:15:11.777Z,96.90
2023-03-25T02:17:54.337Z,96.90
2023-03-25T02:20:54.305Z,96.60
2023-03-25T02:24:04.472Z,97.20
2023-03-25T02:27:01.268Z,97.90
2023-03-25T02:29:43.129Z,98.40
2023-03-25T02:32:26.158Z,98.80
2023-03-25T02:35:15.573Z,98.70
2023-03-25T02:38:19.126Z,98.40
2023-03-25T02:40:55.622Z,98.60
2023-03-25T02:43:28.968Z,98.70
2023-03-25T02:46:00.478Z,98.80
2023-03-25T02:48:33.259Z,99.20
2023-03-25T02:51:05.262Z,99.30
2023-03-25T02:53:37.347Z,99.70
2023-03-25T02:56:10.955Z,99.40
2023-03-25T02:58:40.941Z,98.40
2023-03-25T03:01:10.100Z,97.20
2023-03-25T03:03:38.235Z,98.40
2023-03-25T03:06:07.665Z,95.80
2023-03-25T03:08:59.892Z,96.60
2023-03-25T03:11:32.015Z,96.20
2023-03-25T03:14:19.009Z,96.20
2023-03-25T03:16:55.957Z,96.60
2023-03-25T03:19:38.257Z,96.50
2023-03-25T03:22:21.657Z,95.90
2023-03-25T03:24:56.980Z,95.70
2023-03-25T03:27:33.896Z,95.10
2023-03-25T03:30:08.756Z,94.50
2023-03-25T03:32:43.438Z,94.10
2023-03-25T03:35:17.994Z,93.50
2023-03-25T03:37:51.422Z,93.40
2023-03-25T03:40:23.634Z,93.00
2023-03-25T03:42:56.838Z,92.40
2023-03-25T03:45:28.960Z,92.10
2023-03-25T03:48:01.682Z,91.90
2023-03-25T03:50:32.592Z,91.20
2023-03-25T03:53:07.247Z,91.20
2023-03-25T03:55:41.911Z,90.50
2023-03-25T03:58:15.214Z,91.10
2023-03-25T04:00:50.702Z,91.60
2023-03-25T04:03:24.443Z,92.30
2023-03-25T04:05:58.811Z,92.60
2023-03-25T04:08:30.836Z,91.40
2023-03-25T04:11:05.515Z,91.80
2023-03-25T04:13:37.957Z,91.60
2023-03-25T04:16:07.313Z,91.80
2023-03-25T04:18:35.242Z,91.60
2023-03-25T04:21:03.998Z,91.20
2023-03-25T04:23:31.925Z,91.10
2023-03-25T04:26:02.779Z,91.20
2023-03-25T04:28:31.727Z,91.30
2023-03-25T04:31:00.605Z,89.90
2023-03-25T04:33:32.132Z,89.60
2023-03-25T04:36:02.016Z,89.50
2023-03-25T04:38:30.441Z,89.40
2023-03-25T04:41:00.420Z,88.80
2023-03-25T04:43:29.613Z,89.00
2023-03-25T04:45:57.676Z,88.70
2023-03-25T04:48:30.195Z,88.90
2023-03-25T04:50:59.019Z,88.10
2023-03-25T04:53:27.716Z,88.30
2023-03-25T04:55:55.974Z,87.40
2023-03-25T04:58:23.864Z,87.40
2023-03-25T05:00:53.961Z,87.40
2023-03-25T05:03:24.032Z,86.50
2023-03-25T05:05:52.794Z,86.50
2023-03-25T05:08:21.691Z,86.50
2023-03-25T05:10:50.442Z,85.30
2023-03-25T05:13:18.243Z,84.70
2023-03-25T05:15:46.144Z,84.00
2023-03-25T05:18:17.433Z,84.20
2023-03-25T05:20:51.103Z,84.30
2023-03-25T05:23:19.169Z,84.60
2023-03-25T05:25:47.746Z,84.50
2023-03-25T05:28:16.173Z,84.00
2023-03-25T05:30:46.165Z,84.90
2023-03-25T05:33:17.151Z,84.00
2023-03-25T05:35:45.876Z,84.30
2023-03-25T05:38:18.222Z,82.90
2023-03-25T05:40:47.478Z,83.40
2023-03-25T05:43:15.789Z,83.00
2023-03-25T05:45:45.085Z,82.60
2023-03-25T05:48:12.992Z,83.20
2023-03-25T05:50:42.838Z,82.80
2023-03-25T05:53:13.501Z,82.90
2023-03-25T05:55:41.426Z,82.90
2023-03-25T05:58:09.297Z,82.70
2023-03-25T06:00:37.462Z,82.30
2023-03-25T06:03:08.066Z,82.70
2023-03-25T06:05:36.629Z,82.70
2023-03-25T06:08:05.851Z,83.20
2023-03-25T06:10:34.407Z,83.00
2023-03-25T06:13:02.231Z,83.90
2023-03-25T06:15:39.019Z,83.50
2023-03-25T06:18:07.426Z,83.40
2023-03-25T06:20:35.474Z,83.50
2023-03-25T06:23:03.312Z,84.10
2023-03-25T06:25:32.476Z,84.40
2023-03-25T06:28:03.473Z,84.40
2023-03-25T06:30:32.024Z,84.60
2023-03-25T06:33:02.871Z,84.20
2023-03-25T06:35:30.832Z,84.50
2023-03-25T06:37:58.681Z,84.00
2023-03-25T06:40:26.521Z,83.80
2023-03-25T06:42:55.681Z,84.00
2023-03-25T06:45:23.484Z,83.80
2023-03-25T06:47:51.264Z,83.80
2023-03-25T06:50:19.215Z,84.00
2023-03-25T06:52:47.035Z,85.50
2023-03-25T06:55:16.119Z,86.30
2023-03-25T06:57:44.025Z,86.00
2023-03-25T07:00:14.238Z,86.30
2023-03-25T07:02:42.158Z,86.20
2023-03-25T07:05:10.593Z,86.00
2023-03-25T07:07:38.498Z,85.80
2023-03-25T07:10:07.481Z,86.30
2023-03-25T07:12:35.994Z,84.70
2023-03-25T07:15:03.930Z,84.60
2023-03-25T07:17:33.174Z,84.20
2023-03-25T07:20:00.955Z,83.30
2023-03-25T07:22:28.726Z,82.50
2023-03-25T07:24:58.413Z,81.70
2023-03-25T07:27:26.591Z,81.50
2023-03-25T07:29:55.596Z,81.70
2023-03-25T07:32:23.467Z,80.20
2023-03-25T07:34:52.631Z,81.00
2023-03-25T07:37:20.636Z,81.70
2023-03-25T07:39:48.418Z,81.90
2023-03-25T07:42:16.187Z,81.40
2023-03-25T07:44:44.028Z,80.30
2023-03-25T07:47:11.891Z,79.60
2023-03-25T07:49:40.866Z,80.50
2023-03-25T07:52:10.040Z,79.70
2023-03-25T07:54:38.366Z,78.60
2023-03-25T07:57:06.239Z,78.10
2023-03-25T07:59:34.096Z,77.90
2023-03-25T08:02:02.588Z,78.80
2023-03-25T08:04:30.523Z,79.90
2023-03-25T08:06:58.357Z,80.00
2023-03-25T08:09:27.492Z,79.70
2023-03-25T08:11:55.397Z,79.90
2023-03-25T08:14:23.598Z,79.50
2023-03-25T08:16:51.620Z,80.10
2023-03-25T08:19:19.529Z,81.90
2023-03-25T08:21:47.353Z,81.90
2023-03-25T08:24:15.413Z,81.10
2023-03-25T08:26:44.698Z,80.10
2023-03-25T08:29:12.550Z,81.40
2023-03-25T08:31:40.501Z,81.80
2023-03-25T08:34:08.398Z,81.30
2023-03-25T08:36:39.520Z,81.60
2023-03-25T08:39:11.714Z,80.60
2023-03-25T08:41:39.914Z,78.90
2023-03-25T08:44:09.245Z,76.90
2023-03-25T08:46:37.613Z,76.20
2023-03-25T08:49:06.410Z,74.70
2023-03-25T08:51:34.263Z,74.00
2023-03-25T08:54:02.127Z,75.90
2023-03-25T08:56:30.328Z,76.10
2023-03-25T08:58:58.133Z,74.10
2023-03-25T09:01:27.369Z,75.30
2023-03-25T09:03:55.836Z,75.20
2023-03-25T09:06:23.698Z,73.80
2023-03-25T09:08:52.358Z,72.90
2023-03-25T09:11:34.163Z,74.30
2023-03-25T09:14:04.925Z,74.10
2023-03-25T09:16:34.758Z,75.40
2023-03-25T09:19:02.995Z,75.30
2023-03-25T09:21:31.161Z,74.50
2023-03-25T09:23:59.047Z,74.70
2023-03-25T09:26:27.108Z,73.70
2023-03-25T09:28:56.308Z,76.80
2023-03-25T09:31:24.216Z,78.10
2023-03-25T09:33:53.493Z,78.00
2023-03-25T09:36:21.351Z,81.30
2023-03-25T09:38:49.182Z,82.40
2023-03-25T09:41:28.812Z,80.90
2023-03-25T09:44:06.448Z,77.90
2023-03-25T09:46:34.497Z,76.00
2023-03-25T09:49:04.080Z,75.60
2023-03-25T09:51:36.872Z,77.10
2023-03-25T09:54:14.009Z,76.90
2023-03-25T09:56:44.557Z,76.80
2023-03-25T09:59:16.735Z,76.30
2023-03-25T10:01:50.858Z,76.40
2023-03-25T10:04:41.044Z,76.10
2023-03-25T10:07:24.084Z,74.40
2023-03-25T10:09:59.034Z,73.80
2023-03-25T10:12:35.785Z,74.00
2023-03-25T10:15:15.064Z,74.70
2023-03-25T10:17:54.422Z,71.80
2023-03-25T10:20:43.002Z,71.50
2023-03-25T10:23:19.338Z,70.70
2023-03-25T10:25:53.340Z,70.70
2023-03-25T10:28:28.167Z,69.00
2023-03-25T10:30:56.658Z,69.40
2023-03-25T10:33:34.338Z,70.90
2023-03-25T10:36:04.938Z,68.40
2023-03-25T10:38:34.468Z,70.70
2023-03-25T10:41:15.525Z,69.80
2023-03-25T10:43:44.602Z,70.00
2023-03-25T10:46:19.363Z,70.00
2023-03-25T10:48:48.000Z,67.60
2023-03-25T10:51:19.392Z,66.70
2023-03-25T10:53:49.955Z,65.40
2023-03-25T10:56:20.503Z,62.80
2023-03-25T10:58:52.264Z,63.60
2023-03-25T11:01:22.350Z,62.70
2023-03-25T11:03:52.568Z,63.10
2023-03-25T11:06:26.759Z,63.90
2023-03-25T11:08:59.313Z,64.60
2023-03-25T11:11:33.596Z,62.20
2023-03-25T11:14:02.406Z,61.00
2023-03-25T11:16:33.606Z,64.80
2023-03-25T11:19:03.152Z,65.20
2023-03-25T11:21:34.478Z,62.40
2023-03-25T11:24:02.920Z,59.90
2023-03-25T11:26:39.171Z,59.80
2023-03-25T11:29:10.274Z,59.70
2023-03-25T11:31:39.563Z,57.10
2023-03-25T11:34:18.466Z,57.80
2023-03-25T11:36:55.669Z,59.50
2023-03-25T11:39:31.106Z,57.70
2023-03-25T11:41:59.859Z,57.30
2023-03-25T11:44:30.454Z,59.20
2023-03-25T11:47:01.310Z,57.90
2023-03-25T11:49:34.820Z,58.20
2023-03-25T11:52:08.347Z,58.90
2023-03-25T11:54:38.127Z,59.00
2023-03-25T11:57:12.239Z,56.90
2023-03-25T11:59:44.860Z,57.20
2023-03-25T12:02:24.026Z,58.00
2023-03-25T12:04:59.912Z,58.60
2023-03-25T12:07:29.813Z,57.60
2023-03-25T12:09:59.544Z,56.00
2023-03-25T12:12:36.735Z,59.00
2023-03-25T12:15:19.065Z,58.70
2023-03-25T12:17:57.628Z,59.40
2023-03-25T12:20:30.552Z,58.60
2023-03-25T12:23:16.661Z,59.90
2023-03-25T12:25:55.282Z,58.20
2023-03-25T12:28:40.516Z,58.50
2023-03-25T12:31:21.523Z,58.70
2023-03-25T12:33:59.462Z,58.40
2023-03-25T12:36:40.550Z,57.80
2023-03-25T12:39:42.652Z,58.40
2023-03-25T12:42:22.747Z,60.10
2023-03-25T12:45:04.528Z,60.10
2023-03-25T12:47:36.886Z,62.00
2023-03-25T12:50:17.736Z,58.70
2023-03-25T12:52:57.968Z,58.50
2023-03-25T12:55:54.286Z,59.70
2023-03-25T12:58:44.638Z,58.90
2023-03-25T13:01:21.572Z,58.80
2023-03-25T13:04:12.504Z,58.70
2023-03-25T13:06:44.720Z,60.60
2023-03-25T13:09:17.437Z,60.10
2023-03-25T13:11:51.587Z,59.00
2023-03-25T13:14:24.941Z,58.00
2023-03-25T13:16:56.229Z,58.00
2023-03-25T13:19:27.514Z,58.60
2023-03-25T13:21:58.804Z,57.20
2023-03-25T13:24:39.055Z,56.70
2023-03-25T13:27:08.811Z,57.60
2023-03-25T13:29:41.097Z,58.60
2023-03-25T13:32:15.000Z,56.90
2023-03-25T13:34:50.126Z,56.60
2023-03-25T13:37:22.911Z,57.20
2023-03-25T13:40:11.950Z,55.60
2023-03-25T13:42:49.383Z,55.50
2023-03-25T13:45:19.271Z,54.90
2023-03-25T13:47:53.148Z,55.50
2023-03-25T13:50:26.645Z,57.00
2023-03-25T13:52:59.446Z,56.20
2023-03-25T13:55:33.860Z,56.70
2023-03-25T13:58:40.300Z,55.50
2023-03-25T14:01:30.976Z,54.40
2023-03-25T14:04:30.778Z,54.80
2023-03-25T14:07:12.456Z,55.30
2023-03-25T14:10:12.981Z,53.60
2023-03-25T14:12:44.434Z,55.70
2023-03-25T14:15:18.045Z,60.80
2023-03-25T14:17:47.043Z,65.70
2023-03-25T14:20:24.348Z,68.20
2023-03-25T14:22:57.335Z,71.50
2023-03-25T14:25:33.154Z,69.00
2023-03-25T14:28:02.291Z,69.10
2023-03-25T14:30:33.939Z,66.70
2023-03-25T14:33:04.052Z,68.00
2023-03-25T14:35:59.080Z,67.10
2023-03-25T14:38:52.606Z,68.00
2023-03-25T14:41:54.074Z,67.80
2023-03-25T14:44:22.154Z,67.00
2023-03-25T14:47:02.248Z,66.70
2023-03-25T14:49:50.232Z,66.30
2023-03-25T14:52:22.550Z,66.50
2023-03-25T14:54:53.832Z,65.70
2023-03-25T14:57:24.811Z,64.80
2023-03-25T14:59:57.784Z,63.00
2023-03-25T15:02:29.479Z,63.20
2023-03-25T15:05:00.240Z,64.00
2023-03-25T15:07:44.238Z,60.70
2023-03-25T15:10:23.249Z,60.80
2023-03-25T15:12:54.138Z,61.30
2023-03-25T15:15:31.586Z,61.50
2023-03-25T15:18:01.633Z,61.80
2023-03-25T15:20:38.850Z,63.00
2023-03-25T15:23:34.352Z,63.40
2023-03-25T15:26:04.908Z,63.40
2023-03-25T15:28:48.005Z,63.60
2023-03-25T15:31:29.061Z,63.40
2023-03-25T15:34:15.339Z,66.00
2023-03-25T15:37:06.241Z,68.90
2023-03-25T15:39:48.842Z,70.50
2023-03-25T15:42:51.462Z,72.00
2023-03-25T15:45:36.041Z,70.10
2023-03-25T15:48:32.475Z,69.20
2023-03-25T15:51:32.288Z,70.20
2023-03-25T15:54:34.032Z,70.80
2023-03-25T15:57:09.425Z,68.70
2023-03-25T15:59:43.684Z,69.40
2023-03-25T16:02:27.619Z,67.80
2023-03-25T16:04:56.374Z,68.30
2023-03-25T16:07:30.511Z,66.50
2023-03-25T16:10:06.944Z,65.40
2023-03-25T16:12:34.792Z,62.60
2023-03-25T16:15:07.050Z,63.10
2023-03-25T16:17:35.872Z,62.60
2023-03-25T16:20:07.033Z,63.20
2023-03-25T16:22:37.750Z,62.00
2023-03-25T16:25:09.386Z,59.80
2023-03-25T16:27:42.928Z,58.70
2023-03-25T16:30:23.020Z,59.60
2023-03-25T16:32:51.809Z,59.20
2023-03-25T16:35:24.803Z,58.50
2023-03-25T16:37:57.738Z,59.80
2023-03-25T16:40:28.999Z,58.70
2023-03-25T16:43:04.441Z,59.20
2023-03-25T16:45:32.812Z,59.10
2023-03-25T16:48:07.222Z,58.10
2023-03-25T16:50:36.312Z,57.90
2023-03-25T16:53:06.848Z,58.40
2023-03-25T16:55:47.203Z,58.90
2023-03-25T16:58:19.221Z,58.60
2023-03-25T17:00:50.034Z,59.80
2023-03-25T17:03:39.367Z,59.50
2023-03-25T17:06:19.437Z,59.70
2023-03-25T17:08:53.958Z,60.40
2023-03-25T17:11:23.602Z,60.90
2023-03-25T17:13:54.802Z,61.60
2023-03-25T17:16:23.682Z,62.80
2023-03-25T17:18:53.812Z,63.40
2023-03-25T17:21:26.690Z,64.10
2023-03-25T17:23:58.232Z,64.40
2023-03-25T17:26:28.204Z,64.40
2023-03-25T17:29:02.139Z,64.60
2023-03-25T17:31:34.819Z,65.10
2023-03-25T17:34:06.497Z,65.50
2023-03-25T17:36:36.757Z,66.10
2023-03-25T17:39:14.209Z,66.10
2023-03-25T17:41:42.196Z,66.60
2023-03-25T17:44:15.988Z,67.30
2023-03-25T17:46:44.730Z,67.30
2023-03-25T17:49:16.649Z,67.20
2023-03-25T17:51:45.190Z,67.20
2023-03-25T17:54:15.419Z,67.10
2023-03-25T17:56:43.723Z,67.40
2023-03-25T17:59:19.847Z,67.50
2023-03-25T18:01:50.059Z,67.50
2023-03-25T18:04:19.824Z,68.20
2023-03-25T18:06:47.988Z,68.20
2023-03-25T18:09:19.719Z,68.20
2023-03-25T18:11:49.952Z,68.20
2023-03-25T18:14:17.922Z,67.60
2023-03-25T18:16:46.051Z,67.70
2023-03-25T18:19:16.569Z,67.10
2023-03-25T18:21:44.786Z,69.20
2023-03-25T18:24:13.486Z,74.30
2023-03-25T18:26:44.494Z,76.50
2023-03-25T18:29:17.684Z,77.10
2023-03-25T18:31:45.541Z,77.40
2023-03-25T18:34:14.265Z,76.30
2023-03-25T18:36:43.111Z,77.00
2023-03-25T18:39:14.281Z,78.10
2023-03-25T18:41:44.997Z,77.70
2023-03-25T18:44:13.313Z,78.20
2023-03-25T18:46:41.683Z,78.90
2023-03-25T18:49:13.398Z,78.20
2023-03-25T18:51:41.233Z,77.80
2023-03-25T18:54:09.438Z,77.10
2023-03-25T18:56:37.952Z,76.80
2023-03-25T18:59:07.361Z,76.60
2023-03-25T19:01:35.477Z,76.80
2023-03-25T19:04:03.411Z,78.00
2023-03-25T19:06:32.083Z,78.60
2023-03-25T19:09:00.034Z,78.90
2023-03-25T19:11:28.337Z,79.50
2023-03-25T19:13:56.941Z,80.00
2023-03-25T19:16:26.186Z,80.40
2023-03-25T19:18:54.023Z,80.40
2023-03-25T19:21:21.879Z,80.80
2023-03-25T19:23:49.791Z,79.90
2023-03-25T19:26:17.606Z,79.50
2023-03-25T19:28:45.394Z,79.30
2023-03-25T19:31:15.573Z,79.30
2023-03-25T19:33:44.965Z,79.20
2023-03-25T19:36:15.761Z,78.30
2023-03-25T19:38:43.815Z,77.60
2023-03-25T19:41:14.166Z,77.30
2023-03-25T19:43:42.246Z,77.00
2023-03-25T19:46:10.314Z,77.20
2023-03-25T19:48:38.257Z,76.70
2023-03-25T19:51:07.773Z,76.40
2023-03-25T19:53:35.713Z,76.70
2023-03-25T19:56:04.164Z,76.20
2023-03-25T19:58:32.639Z,76.70
2023-03-25T20:01:00.520Z,76.60
2023-03-25T20:03:31.324Z,76.30
2023-03-25T20:06:01.531Z,76.10
2023-03-25T20:08:31.916Z,76.00
2023-03-25T20:11:01.020Z,75.70
2023-03-25T20:13:29.033Z,74.70
2023-03-25T20:15:56.854Z,74.10
2023-03-25T20:18:24.659Z,74.50
2023-03-25T20:20:52.677Z,75.10
2023-03-25T20:23:20.614Z,75.30
2023-03-25T20:25:51.154Z,75.00
2023-03-25T20:28:19.165Z,74.60
2023-03-25T20:30:47.209Z,74.70
2023-03-25T20:33:15.117Z,74.70
2023-03-25T20:35:43.886Z,74.80
2023-03-25T20:38:14.148Z,74.30
2023-03-25T20:40:45.104Z,74.50
2023-03-25T20:43:15.113Z,74.80
2023-03-25T20:45:43.870Z,74.60
2023-03-25T20:48:11.785Z,73.60
2023-03-25T20:50:39.686Z,74.20
2023-03-25T20:53:07.497Z,74.00
2023-03-25T20:55:35.728Z,74.40
2023-03-25T20:58:03.897Z,74.40
2023-03-25T21:00:34.156Z,75.00
2023-03-25T21:03:03.128Z,75.30
2023-03-25T21:05:31.252Z,76.20
2023-03-25T21:07:59.090Z,77.40
2023-03-25T21:10:27.255Z,79.00
2023-03-25T21:12:55.109Z,79.80
2023-03-25T21:15:23.064Z,80.90
2023-03-25T21:17:52.178Z,83.20
2023-03-25T21:20:21.923Z,85.50
2023-03-25T21:22:50.893Z,87.10
2023-03-25T21:25:19.093Z,87.80
2023-03-25T21:27:46.990Z,86.30
2023-03-25T21:30:15.835Z,85.00
2023-03-25T21:32:43.937Z,84.40
2023-03-25T21:35:13.189Z,85.00
2023-03-25T21:37:41.011Z,84.40
2023-03-25T21:40:11.567Z,84.90
2023-03-25T21:42:41.263Z,85.60
2023-03-25T21:45:10.721Z,86.30
2023-03-25T21:47:38.566Z,86.80
2023-03-25T21:50:09.994Z,85.90
2023-03-25T21:52:43.083Z,85.90
2023-03-25T21:55:12.548Z,85.50
2023-03-25T21:57:41.997Z,85.20
2023-03-25T22:00:14.266Z,85.20
2023-03-25T22:02:43.819Z,85.00
2023-03-25T22:05:12.410Z,85.10
2023-03-25T22:07:42.082Z,85.10
2023-03-25T22:10:11.499Z,84.60
2023-03-25T22:12:39.671Z,83.50
2023-03-25T22:15:09.134Z,83.30
2023-03-25T22:17:36.954Z,83.70
2023-03-25T22:20:06.617Z,83.90
2023-03-25T22:22:34.436Z,83.40
2023-03-25T22:25:04.128Z,83.70
2023-03-25T22:27:32.059Z,84.00
2023-03-25T22:30:01.241Z,84.00
2023-03-25T22:32:29.314Z,84.20
2023-03-25T22:34:57.121Z,83.90
2023-03-25T22:37:24.948Z,83.90
2023-03-25T22:39:52.736Z,84.10
2023-03-25T22:42:21.967Z,84.10
2023-03-25T22:44:49.809Z,83.80
2023-03-25T22:47:17.644Z,83.70
2023-03-25T22:49:45.792Z,83.20
2023-03-25T22:52:13.585Z,83.20
2023-03-25T22:54:41.377Z,83.10
2023-03-25T22:57:09.220Z,83.30
2023-03-25T22:59:39.183Z,82.80
2023-03-25T23:02:07.742Z,83.10
2023-03-25T23:04:35.642Z,83.00
2023-03-25T23:07:08.496Z,83.30
2023-03-25T23:09:44.110Z,83.40
2023-03-25T23:12:13.713Z,83.00
2023-03-25T23:14:48.355Z,83.20
2023-03-25T23:17:16.601Z,83.10
2023-03-25T23:19:45.416Z,82.60
2023-03-25T23:22:13.270Z,82.90
2023-03-25T23:24:41.309Z,83.00
2023-03-25T23:27:11.516Z,82.70
2023-03-25T23:29:40.049Z,82.20
2023-03-25T23:32:11.273Z,82.40
2023-03-25T23:34:40.234Z,82.30
2023-03-25T23:37:09.226Z,82.20
2023-03-25T23:39:37.315Z,81.50
2023-03-25T23:42:05.247Z,81.20
2023-03-25T23:44:34.166Z,81.00
2023-03-25T23:47:02.130Z,81.40
2023-03-25T23:49:33.225Z,81.40
2023-03-25T23:52:01.171Z,81.40
2023-03-25T23:54:29.127Z,81.40
2023-03-25T23:56:57.000Z,81.10
2023-03-25T23:59:24.918Z,81.20
